createdAt,value
2019-02-09T00:00:37.634Z,100279.33
2019-02-09T00:03:07.968Z,100277.99
2019-02-09T00:05:36.971Z,100279.36
2019-02-09T00:08:08.879Z,100278.86
2019-02-09T00:10:37.598Z,100278.70
2019-02-09T00:13:06.418Z,100274.82
2019-02-09T00:15:36.115Z,100279.62
2019-02-09T00:18:08.562Z,100274.78
2019-02-09T00:20:37.288Z,100272.61
2019-02-09T00:23:06.850Z,100272.41
2019-02-09T00:25:35.774Z,100269.05
2019-02-09T00:28:05.212Z,100265.17
2019-02-09T00:30:33.976Z,100268.97
2019-02-09T00:33:02.713Z,100267.52
2019-02-09T00:35:31.434Z,100271.73
2019-02-09T00:38:00.305Z,100266.77
2019-02-09T00:40:30.040Z,100270.36
2019-02-09T00:42:58.772Z,100269.22
2019-02-09T00:45:29.349Z,100268.43
2019-02-09T00:47:58.079Z,100273.66
2019-02-09T00:50:26.804Z,100271.81
2019-02-09T00:52:55.589Z,100274.64
2019-02-09T00:55:28.284Z,100275.27
2019-02-09T00:57:57.168Z,100270.09
2019-02-09T01:00:33.014Z,100276.99
2019-02-09T01:03:01.839Z,100272.48
2019-02-09T01:05:39.199Z,100268.39
2019-02-09T01:08:08.033Z,100258.75
2019-02-09T01:10:36.868Z,100264.13
2019-02-09T01:13:05.936Z,100262.12
2019-02-09T01:15:34.658Z,100262.52
2019-02-09T01:18:03.391Z,100257.52
2019-02-09T01:20:32.397Z,100257.02
2019-02-09T01:23:01.827Z,100259.61
2019-02-09T01:25:30.556Z,100252.86
2019-02-09T01:27:59.531Z,100250.00
2019-02-09T01:30:29.559Z,100251.97
2019-02-09T01:32:58.484Z,100248.13
2019-02-09T01:35:27.692Z,100250.98
2019-02-09T01:37:56.510Z,100244.66
2019-02-09T01:40:29.942Z,100249.59
2019-02-09T01:42:58.729Z,100239.86
2019-02-09T01:45:30.297Z,100239.39
2019-02-09T01:47:59.325Z,100242.73
2019-02-09T01:50:30.516Z,100242.60
2019-02-09T01:52:59.425Z,100242.77
2019-02-09T01:55:28.955Z,100243.20
2019-02-09T01:57:58.639Z,100239.40
2019-02-09T02:00:29.947Z,100239.14
2019-02-09T02:02:58.878Z,100234.70
2019-02-09T02:05:28.013Z,100234.77
2019-02-09T02:07:56.946Z,100239.66
2019-02-09T02:10:39.088Z,100237.77
2019-02-09T02:13:09.721Z,100236.80
2019-02-09T02:15:39.023Z,100235.92
2019-02-09T02:18:08.607Z,100229.41
2019-02-09T02:20:37.633Z,100235.27
2019-02-09T02:23:06.651Z,100232.76
2019-02-09T02:25:35.714Z,100233.84
2019-02-09T02:28:04.753Z,100233.17
2019-02-09T02:30:35.802Z,100243.45
2019-02-09T02:33:05.443Z,100235.56
2019-02-09T02:35:34.267Z,100238.07
2019-02-09T02:38:02.995Z,100236.59
2019-02-09T02:40:31.875Z,100236.44
2019-02-09T02:43:00.612Z,100239.22
2019-02-09T02:45:29.441Z,100242.48
2019-02-09T02:47:58.305Z,100239.86
2019-02-09T02:50:27.024Z,100237.42
2019-02-09T02:52:55.748Z,100233.52
2019-02-09T02:55:26.814Z,100237.55
2019-02-09T02:57:55.637Z,100236.50
2019-02-09T03:00:32.257Z,100239.63
2019-02-09T03:03:00.793Z,100236.59
2019-02-09T03:05:29.519Z,100241.03
2019-02-09T03:07:58.289Z,100234.56
2019-02-09T03:10:27.014Z,100240.91
2019-02-09T03:12:55.740Z,100243.61
2019-02-09T03:15:29.479Z,100241.27
2019-02-09T03:17:58.206Z,100241.38
2019-02-09T03:20:27.235Z,100248.92
2019-02-09T03:22:56.228Z,100239.92
2019-02-09T03:25:33.513Z,100244.26
2019-02-09T03:28:02.640Z,100239.92
2019-02-09T03:30:45.858Z,100248.79
2019-02-09T03:33:01.817Z,100247.55
2019-02-09T03:35:30.770Z,100249.53
2019-02-09T03:37:59.500Z,100259.78
2019-02-09T03:40:29.525Z,100252.67
2019-02-09T03:42:58.328Z,100256.81
2019-02-09T03:45:32.596Z,100260.63
2019-02-09T03:48:02.109Z,100266.51
2019-02-09T03:50:32.284Z,100257.19
2019-02-09T03:53:01.720Z,100264.61
2019-02-09T03:55:30.545Z,100254.16
2019-02-09T03:57:59.864Z,100262.61
2019-02-09T04:00:32.181Z,100261.17
2019-02-09T04:03:02.770Z,100266.44
2019-02-09T04:05:31.843Z,100268.23
2019-02-09T04:08:00.571Z,100267.03
2019-02-09T04:10:29.625Z,100268.27
2019-02-09T04:12:58.756Z,100269.73
2019-02-09T04:15:28.891Z,100275.53
2019-02-09T04:18:00.247Z,100270.53
2019-02-09T04:20:35.479Z,100273.06
2019-02-09T04:23:07.591Z,100275.02
2019-02-09T04:25:36.323Z,100271.73
2019-02-09T04:28:05.236Z,100270.17
2019-02-09T04:30:34.048Z,100276.05
2019-02-09T04:33:02.767Z,100274.89
2019-02-09T04:35:31.525Z,100266.75
2019-02-09T04:38:00.363Z,100273.07
2019-02-09T04:40:30.785Z,100273.51
2019-02-09T04:42:59.948Z,100276.30
2019-02-09T04:45:28.768Z,100273.05
2019-02-09T04:47:57.608Z,100274.91
2019-02-09T04:50:26.599Z,100271.52
2019-02-09T04:52:55.328Z,100276.84
2019-02-09T04:55:25.585Z,100277.58
2019-02-09T04:57:54.447Z,100277.05
2019-02-09T05:00:25.522Z,100279.52
2019-02-09T05:02:54.243Z,100277.52
2019-02-09T05:05:23.476Z,100277.11
2019-02-09T05:07:52.207Z,100280.66
2019-02-09T05:10:22.733Z,100281.49
2019-02-09T05:12:51.616Z,100282.69
2019-02-09T05:15:22.152Z,100284.95
2019-02-09T05:17:51.176Z,100282.15
2019-02-09T05:20:25.429Z,100279.42
2019-02-09T05:22:54.727Z,100275.94
2019-02-09T05:25:23.586Z,100276.08
2019-02-09T05:27:52.555Z,100278.75
2019-02-09T05:30:26.707Z,100276.77
2019-02-09T05:32:55.834Z,100278.25
2019-02-09T05:35:24.708Z,100279.28
2019-02-09T05:37:53.444Z,100281.91
2019-02-09T05:40:24.511Z,100276.41
2019-02-09T05:42:53.681Z,100279.23
2019-02-09T05:45:27.976Z,100279.83
2019-02-09T05:47:56.896Z,100280.61
2019-02-09T05:50:25.720Z,100280.38
2019-02-09T05:52:54.439Z,100280.73
2019-02-09T05:55:23.350Z,100285.20
2019-02-09T05:57:52.069Z,100284.02
2019-02-09T06:00:41.951Z,100281.80
2019-02-09T06:03:10.671Z,100288.78
2019-02-09T06:05:39.393Z,100284.30
2019-02-09T06:08:08.222Z,100289.73
2019-02-09T06:10:36.967Z,100291.13
2019-02-09T06:13:05.696Z,100292.48
2019-02-09T06:15:34.602Z,100286.16
2019-02-09T06:18:03.325Z,100299.73
2019-02-09T06:20:32.162Z,100300.67
2019-02-09T06:23:01.137Z,100300.58
2019-02-09T06:25:29.879Z,100296.59
2019-02-09T06:27:58.622Z,100293.66
2019-02-09T06:30:32.524Z,100297.97
2019-02-09T06:33:01.254Z,100299.53
2019-02-09T06:35:30.493Z,100304.80
2019-02-09T06:37:59.598Z,100296.98
2019-02-09T06:40:28.460Z,100304.93
2019-02-09T06:42:57.304Z,100303.56
2019-02-09T06:45:27.190Z,100310.50
2019-02-09T06:48:15.103Z,100304.36
2019-02-09T06:50:43.980Z,100307.75
2019-02-09T06:53:12.709Z,100311.42
2019-02-09T06:55:41.426Z,100312.05
2019-02-09T06:58:10.252Z,100311.71
2019-02-09T07:00:38.983Z,100313.64
2019-02-09T07:03:07.813Z,100317.03
2019-02-09T07:05:36.699Z,100314.52
2019-02-09T07:08:06.040Z,100320.33
2019-02-09T07:10:34.762Z,100318.91
2019-02-09T07:13:03.723Z,100321.41
2019-02-09T07:15:37.506Z,100321.62
2019-02-09T07:18:07.333Z,100323.28
2019-02-09T07:20:36.329Z,100322.99
2019-02-09T07:23:06.668Z,100322.53
2019-02-09T07:25:35.499Z,100317.71
2019-02-09T07:28:05.403Z,100320.64
2019-02-09T07:30:35.931Z,100324.78
2019-02-09T07:33:06.652Z,100322.58
2019-02-09T07:35:35.961Z,100319.33
2019-02-09T07:38:04.983Z,100320.91
2019-02-09T07:40:34.823Z,100323.45
2019-02-09T07:43:03.717Z,100323.67
2019-02-09T07:45:34.366Z,100323.21
2019-02-09T07:48:03.087Z,100321.69
2019-02-09T07:50:31.962Z,100319.83
2019-02-09T07:53:01.215Z,100317.78
2019-02-09T07:55:29.895Z,100319.22
2019-02-09T07:57:58.662Z,100321.70
2019-02-09T08:00:29.986Z,100329.11
2019-02-09T08:02:59.109Z,100325.31
2019-02-09T08:05:29.663Z,100318.47
2019-02-09T08:07:58.893Z,100322.86
2019-02-09T08:10:29.923Z,100326.53
2019-02-09T08:12:59.595Z,100324.61
2019-02-09T08:15:30.584Z,100327.91
2019-02-09T08:17:59.512Z,100330.04
2019-02-09T08:20:30.835Z,100337.22
2019-02-09T08:23:01.704Z,100332.64
2019-02-09T08:25:32.833Z,100331.78
2019-02-09T08:28:02.512Z,100334.25
2019-02-09T08:30:43.102Z,100333.50
2019-02-09T08:33:12.001Z,100338.46
2019-02-09T08:35:40.736Z,100331.06
2019-02-09T08:38:10.258Z,100337.33
2019-02-09T08:40:39.478Z,100337.23
2019-02-09T08:43:08.217Z,100332.47
2019-02-09T08:45:37.079Z,100332.61
2019-02-09T08:48:07.798Z,100333.89
2019-02-09T08:50:45.180Z,100327.98
2019-02-09T08:53:18.859Z,100335.23
2019-02-09T08:55:47.592Z,100332.23
2019-02-09T08:58:16.317Z,100329.42
2019-02-09T09:00:45.158Z,100329.72
2019-02-09T09:03:13.882Z,100328.88
2019-02-09T09:05:42.609Z,100331.22
2019-02-09T09:08:11.831Z,100330.91
2019-02-09T09:10:40.557Z,100319.18
2019-02-09T09:13:09.296Z,100325.55
2019-02-09T09:15:41.163Z,100319.92
2019-02-09T09:18:10.005Z,100321.87
2019-02-09T09:20:50.860Z,100314.59
2019-02-09T09:23:19.611Z,100318.99
2019-02-09T09:25:48.649Z,100317.70
2019-02-09T09:28:17.498Z,100319.56
2019-02-09T09:30:46.332Z,100325.91
2019-02-09T09:33:15.065Z,100309.47
2019-02-09T09:35:44.119Z,100314.19
2019-02-09T09:38:12.906Z,100314.19
2019-02-09T09:40:43.240Z,100312.11
2019-02-09T09:43:12.200Z,100312.66
2019-02-09T09:45:42.939Z,100310.30
2019-02-09T09:48:14.068Z,100312.90
2019-02-09T09:50:43.032Z,100301.44
2019-02-09T09:53:11.755Z,100303.77
2019-02-09T09:55:40.777Z,100300.92
2019-02-09T09:58:09.969Z,100296.14
2019-02-09T10:00:38.796Z,100297.93
2019-02-09T10:03:09.274Z,100298.49
2019-02-09T10:05:38.044Z,100296.91
2019-02-09T10:08:07.403Z,100298.52
2019-02-09T10:10:36.233Z,100291.73
2019-02-09T10:13:05.915Z,100285.33
2019-02-09T10:15:34.752Z,100280.73
2019-02-09T10:18:03.482Z,100287.56
2019-02-09T10:20:32.373Z,100279.33
2019-02-09T10:23:01.195Z,100281.44
2019-02-09T10:25:30.033Z,100279.58
2019-02-09T10:27:59.244Z,100266.98
2019-02-09T10:30:29.870Z,100278.64
2019-02-09T10:32:58.596Z,100276.01
2019-02-09T10:35:28.039Z,100272.00
2019-02-09T10:37:56.863Z,100262.80
2019-02-09T10:40:30.377Z,100266.38
2019-02-09T10:42:59.549Z,100263.74
2019-02-09T10:45:29.889Z,100258.05
2019-02-09T10:48:00.195Z,100259.55
2019-02-09T10:50:37.584Z,100258.03
2019-02-09T10:53:06.518Z,100254.84
2019-02-09T10:55:37.795Z,100250.13
2019-02-09T10:58:06.956Z,100247.13
2019-02-09T11:00:56.658Z,100245.00
2019-02-09T11:03:25.563Z,100241.83
2019-02-09T11:06:20.795Z,100234.27
2019-02-09T11:11:59.983Z,100225.91
2019-02-09T11:14:28.836Z,100222.60
2019-02-09T11:16:57.583Z,100215.71
2019-02-09T11:19:26.310Z,100218.11
2019-02-09T11:21:55.192Z,100223.66
2019-02-09T11:24:23.931Z,100216.53
2019-02-09T11:26:52.667Z,100212.80
2019-02-09T11:29:21.555Z,100214.50
2019-02-09T11:31:50.285Z,100206.02
2019-02-09T11:34:19.012Z,100211.53
2019-02-09T11:36:48.113Z,100209.05
2019-02-09T11:39:16.860Z,100202.84
2019-02-09T11:41:45.625Z,100199.99
2019-02-09T11:44:14.372Z,100197.81
2019-02-09T11:46:43.125Z,100203.89
2019-02-09T11:49:11.864Z,100194.30
2019-02-09T11:51:40.635Z,100187.83
2019-02-09T11:54:09.365Z,100188.14
2019-02-09T11:56:38.097Z,100181.05
2019-02-09T11:59:06.906Z,100180.62
2019-02-09T12:01:36.118Z,100173.43
2019-02-09T12:04:05.924Z,100172.83
2019-02-09T12:06:34.780Z,100168.04
2019-02-09T12:09:04.948Z,100154.83
2019-02-09T12:11:33.688Z,100157.59
2019-02-09T12:14:02.558Z,100154.42
2019-02-09T12:16:31.285Z,100147.73
2019-02-09T12:19:00.025Z,100151.23
2019-02-09T12:21:28.795Z,100142.16
2019-02-09T12:23:57.530Z,100144.07
2019-02-09T12:26:26.276Z,100147.83
2019-02-09T12:28:55.095Z,100144.56
2019-02-09T12:31:23.822Z,100141.12
2019-02-09T12:33:52.560Z,100141.78
2019-02-09T12:36:21.438Z,100130.61
2019-02-09T12:38:50.169Z,100128.63
2019-02-09T12:41:18.908Z,100129.18
2019-02-09T12:43:47.781Z,100123.73
2019-02-09T12:46:16.512Z,100124.28
2019-02-09T12:48:45.247Z,100122.51
2019-02-09T12:51:14.149Z,100117.50
2019-02-09T12:53:42.878Z,100116.26
2019-02-09T12:56:11.605Z,100111.98
2019-02-09T12:58:40.478Z,100109.95
2019-02-09T13:01:09.223Z,100113.20
2019-02-09T13:03:37.941Z,100105.34
2019-02-09T13:06:06.845Z,100104.48
2019-02-09T13:08:35.581Z,100109.81
2019-02-09T13:11:04.717Z,100100.59
2019-02-09T13:13:33.603Z,100101.93
2019-02-09T13:16:02.328Z,100092.83
2019-02-09T13:18:31.054Z,100097.34
2019-02-09T13:21:00.179Z,100100.72
2019-02-09T13:23:28.904Z,100092.50
2019-02-09T13:25:58.335Z,100091.48
2019-02-09T13:28:27.103Z,100094.41
2019-02-09T13:30:55.842Z,100092.17
2019-02-09T13:33:24.563Z,100095.06
2019-02-09T13:35:53.373Z,100097.55
2019-02-09T13:38:22.102Z,100090.80
2019-02-09T13:40:50.830Z,100092.22
2019-02-09T13:43:19.647Z,100094.97
2019-02-09T13:45:50.682Z,100090.77
2019-02-09T13:48:19.404Z,100090.90
2019-02-09T13:50:48.296Z,100087.48
2019-02-09T13:53:17.019Z,100086.36
2019-02-09T13:55:45.797Z,100077.52
2019-02-09T13:58:14.975Z,100088.80
2019-02-09T14:00:43.710Z,100096.30
2019-02-09T14:03:12.433Z,100094.20
2019-02-09T14:05:41.211Z,100098.11
2019-02-09T14:08:09.966Z,100089.02
2019-02-09T14:10:38.701Z,100085.44
2019-02-09T14:13:14.350Z,100089.28
2019-02-09T14:15:39.342Z,100091.26
2019-02-09T14:18:10.490Z,100085.30
2019-02-09T14:20:39.467Z,100080.71
2019-02-09T14:23:08.374Z,100088.52
2019-02-09T14:25:37.108Z,100091.59
2019-02-09T14:28:07.387Z,100084.91
2019-02-09T14:30:38.752Z,100089.66
2019-02-09T14:33:09.573Z,100086.00
2019-02-09T14:35:39.077Z,100086.27
2019-02-09T14:38:07.910Z,100089.00
2019-02-09T14:40:36.633Z,100085.51
2019-02-09T14:43:06.627Z,100082.80
2019-02-09T14:45:37.671Z,100084.09
2019-02-09T14:48:06.551Z,100078.95
2019-02-09T14:50:35.759Z,100087.23
2019-02-09T14:53:05.289Z,100082.47
2019-02-09T14:55:38.497Z,100084.52
2019-02-09T14:58:09.106Z,100085.07
2019-02-09T15:00:40.851Z,100091.64
2019-02-09T15:03:10.377Z,100089.94
2019-02-09T15:05:39.278Z,100088.48
2019-02-09T15:08:08.447Z,100081.55
2019-02-09T15:10:37.274Z,100080.28
2019-02-09T15:13:07.683Z,100084.46
2019-02-09T15:15:48.647Z,100081.34
2019-02-09T15:18:18.775Z,100077.42
2019-02-09T15:20:53.023Z,100081.56
2019-02-09T15:23:21.756Z,100083.12
2019-02-09T15:25:50.558Z,100085.69
2019-02-09T15:28:19.362Z,100084.61
2019-02-09T15:30:48.098Z,100079.82
2019-02-09T15:33:16.975Z,100080.53
2019-02-09T15:35:45.701Z,100082.87
2019-02-09T15:38:14.436Z,100084.09
2019-02-09T15:40:43.220Z,100086.14
2019-02-09T15:43:11.945Z,100087.86
2019-02-09T15:45:40.677Z,100091.70
2019-02-09T15:48:09.658Z,100086.12
2019-02-09T15:50:38.385Z,100085.28
2019-02-09T15:53:07.111Z,100081.09
2019-02-09T15:55:35.906Z,100085.11
2019-02-09T15:58:04.734Z,100087.89
2019-02-09T16:00:33.669Z,100089.07
2019-02-09T16:03:03.110Z,100095.73
2019-02-09T16:05:31.844Z,100097.37
2019-02-09T16:08:00.771Z,100101.45
2019-02-09T16:10:29.595Z,100103.67
2019-02-09T16:12:58.325Z,100108.80
2019-02-09T16:15:31.174Z,100105.73
2019-02-09T16:17:59.938Z,100104.72
2019-02-09T16:20:31.579Z,100108.19
2019-02-09T16:23:00.444Z,100110.59
2019-02-09T16:25:29.437Z,100104.48
2019-02-09T16:27:58.178Z,100104.34
2019-02-09T16:30:28.055Z,100108.62
2019-02-09T16:32:56.899Z,100114.22
2019-02-09T16:35:27.538Z,100112.73
2019-02-09T16:37:56.359Z,100115.95
2019-02-09T16:40:34.149Z,100115.80
2019-02-09T16:43:02.987Z,100111.36
2019-02-09T16:45:34.647Z,100119.08
2019-02-09T16:48:04.038Z,100111.27
2019-02-09T16:50:32.767Z,100108.30
2019-02-09T16:53:01.500Z,100108.96
2019-02-09T16:55:30.386Z,100113.95
2019-02-09T16:57:59.132Z,100116.48
2019-02-09T17:00:33.463Z,100117.48
2019-02-09T17:03:02.628Z,100125.88
2019-02-09T17:05:31.358Z,100121.31
2019-02-09T17:08:00.199Z,100120.47
2019-02-09T17:10:29.242Z,100124.78
2019-02-09T17:12:57.984Z,100123.20
2019-02-09T17:15:28.624Z,100127.63
2019-02-09T17:17:57.644Z,100131.65
2019-02-09T17:20:26.380Z,100129.85
2019-02-09T17:22:55.153Z,100136.52
2019-02-09T17:25:25.582Z,100147.84
2019-02-09T17:27:54.552Z,100143.36
2019-02-09T17:30:32.206Z,100143.25
2019-02-09T17:33:01.040Z,100138.95
2019-02-09T17:35:29.782Z,100144.54
2019-02-09T17:37:58.677Z,100146.39
2019-02-09T17:40:36.214Z,100146.31
2019-02-09T17:43:06.346Z,100151.61
2019-02-09T17:45:49.659Z,100151.28
2019-02-09T17:48:18.534Z,100149.89
2019-02-09T17:50:47.272Z,100145.61
2019-02-09T17:53:16.006Z,100159.37
2019-02-09T17:55:45.211Z,100154.77
2019-02-09T17:58:14.004Z,100152.30
2019-02-09T18:00:50.137Z,100146.64
2019-02-09T18:03:18.931Z,100147.32
2019-02-09T18:05:47.667Z,100151.84
2019-02-09T18:08:16.428Z,100152.69
2019-02-09T18:10:45.322Z,100142.59
2019-02-09T18:13:14.055Z,100151.27
2019-02-09T18:15:42.816Z,100157.01
2019-02-09T18:18:11.686Z,100161.02
2019-02-09T18:20:40.427Z,100157.38
2019-02-09T18:23:09.168Z,100156.61
2019-02-09T18:25:38.385Z,100155.64
2019-02-09T18:28:07.231Z,100156.45
2019-02-09T18:30:36.667Z,100154.08
2019-02-09T18:33:05.849Z,100155.05
2019-02-09T18:35:34.579Z,100162.91
2019-02-09T18:38:03.311Z,100153.76
2019-02-09T18:40:32.668Z,100155.42
2019-02-09T18:43:01.401Z,100160.70
2019-02-09T18:45:31.760Z,100159.22
2019-02-09T18:48:00.737Z,100157.45
2019-02-09T18:50:30.874Z,100157.58
2019-02-09T18:53:02.486Z,100159.66
2019-02-09T18:55:32.145Z,100162.52
2019-02-09T18:58:00.982Z,100164.77
2019-02-09T19:00:32.628Z,100168.17
2019-02-09T19:03:02.270Z,100170.88
2019-02-09T19:05:31.016Z,100173.16
2019-02-09T19:07:59.875Z,100173.11
2019-02-09T19:10:29.358Z,100174.85
2019-02-09T19:12:58.096Z,100173.44
2019-02-09T19:15:28.708Z,100180.71
2019-02-09T19:17:59.179Z,100182.97
2019-02-09T19:20:46.392Z,100186.48
2019-02-09T19:23:15.302Z,100184.13
2019-02-09T19:25:44.126Z,100175.89
2019-02-09T19:28:12.857Z,100178.13
2019-02-09T19:30:42.105Z,100177.76
2019-02-09T19:33:10.902Z,100180.28
2019-02-09T19:35:39.633Z,100189.73
2019-02-09T19:38:08.742Z,100185.31
2019-02-09T19:40:37.476Z,100193.93
2019-02-09T19:43:06.609Z,100187.28
2019-02-09T19:45:37.414Z,100191.26
2019-02-09T19:48:07.715Z,100192.34
2019-02-09T19:50:36.464Z,100191.85
2019-02-09T19:53:06.026Z,100193.14
2019-02-09T19:55:37.844Z,100200.24
2019-02-09T19:58:07.075Z,100196.91
2019-02-09T20:00:38.919Z,100197.01
2019-02-09T20:03:08.252Z,100192.38
2019-02-09T20:05:36.981Z,100203.08
2019-02-09T20:08:07.466Z,100194.30
2019-02-09T20:10:41.475Z,100194.95
2019-02-09T20:13:12.050Z,100199.80
2019-02-09T20:15:40.981Z,100201.41
2019-02-09T20:18:10.701Z,100198.62
2019-02-09T20:20:46.829Z,100195.55
2019-02-09T20:23:10.226Z,100197.48
2019-02-09T20:25:38.982Z,100199.34
2019-02-09T20:28:08.041Z,100203.95
2019-02-09T20:30:39.073Z,100200.91
2019-02-09T20:33:08.106Z,100206.71
2019-02-09T20:35:39.262Z,100211.98
2019-02-09T20:38:09.511Z,100211.26
2019-02-09T20:40:47.789Z,100214.77
2019-02-09T20:43:19.091Z,100212.88
2019-02-09T20:45:48.018Z,100213.23
2019-02-09T20:48:17.235Z,100211.38
2019-02-09T20:50:46.139Z,100215.90
2019-02-09T20:53:14.706Z,100215.00
2019-02-09T20:55:43.607Z,100214.27
2019-02-09T20:58:13.276Z,100210.56
2019-02-09T21:00:42.071Z,100215.52
2019-02-09T21:03:10.983Z,100210.25
2019-02-09T21:05:39.742Z,100208.89
2019-02-09T21:08:08.958Z,100209.16
2019-02-09T21:10:40.466Z,100198.61
2019-02-09T21:13:09.250Z,100198.53
2019-02-09T21:15:38.194Z,100203.00
2019-02-09T21:18:07.886Z,100201.42
2019-02-09T21:20:36.727Z,100204.23
2019-02-09T21:23:06.077Z,100203.93
2019-02-09T21:25:43.478Z,100204.48
2019-02-09T21:28:12.233Z,100204.59
2019-02-09T21:30:43.737Z,100207.48
2019-02-09T21:33:12.760Z,100210.14
2019-02-09T21:35:44.435Z,100213.41
2019-02-09T21:38:12.094Z,100212.39
2019-02-09T21:40:40.994Z,100213.86
2019-02-09T21:43:09.892Z,100211.47
2019-02-09T21:45:45.024Z,100217.67
2019-02-09T21:48:09.639Z,100221.75
2019-02-09T21:50:39.198Z,100223.56
2019-02-09T21:53:09.264Z,100223.78
2019-02-09T21:55:40.880Z,100223.37
2019-02-09T21:58:09.741Z,100229.98
2019-02-09T22:00:49.090Z,100232.73
2019-02-09T22:03:20.889Z,100236.59
2019-02-09T22:05:51.997Z,100239.82
2019-02-09T22:08:20.539Z,100241.73
2019-02-09T22:10:50.802Z,100239.89
2019-02-09T22:13:19.538Z,100239.62
2019-02-09T22:15:48.442Z,100242.68
2019-02-09T22:18:17.174Z,100242.90
2019-02-09T22:20:52.941Z,100246.92
2019-02-09T22:23:26.781Z,100239.97
2019-02-09T22:25:52.962Z,100239.08
2019-02-09T22:28:21.708Z,100242.98
2019-02-09T22:30:53.040Z,100240.33
2019-02-09T22:33:24.591Z,100245.30
2019-02-09T22:35:59.884Z,100244.84
2019-02-09T22:38:23.381Z,100252.42
2019-02-09T22:40:52.152Z,100252.69
2019-02-09T22:43:20.903Z,100250.19
2019-02-09T22:45:49.724Z,100242.13
2019-02-09T22:48:21.211Z,100237.70
2019-02-09T22:50:52.731Z,100241.02
2019-02-09T22:53:21.514Z,100240.14
2019-02-09T22:55:50.479Z,100248.64
2019-02-09T22:58:19.447Z,100251.62
2019-02-09T23:00:58.969Z,100259.62
2019-02-09T23:03:48.633Z,100251.25
2019-02-09T23:06:38.614Z,100244.39
2019-02-09T23:09:09.968Z,100240.63
2019-02-09T23:11:41.477Z,100236.36
2019-02-09T23:14:10.682Z,100238.36
2019-02-09T23:16:39.440Z,100233.98
2019-02-09T23:19:08.273Z,100238.14
2019-02-09T23:21:37.132Z,100227.37
2019-02-09T23:24:05.982Z,100229.64
2019-02-09T23:26:34.728Z,100225.61
2019-02-09T23:29:03.512Z,100220.59
2019-02-09T23:31:32.265Z,100216.87
2019-02-09T23:34:01.022Z,100214.61
2019-02-09T23:36:29.819Z,100209.70
2019-02-09T23:38:58.570Z,100209.87
2019-02-09T23:41:29.290Z,100208.19
2019-02-09T23:43:58.166Z,100204.13
2019-02-09T23:46:26.897Z,100206.50
2019-02-09T23:48:55.645Z,100204.03
2019-02-09T23:51:24.410Z,100202.16
2019-02-09T23:53:53.154Z,100193.22
2019-02-09T23:56:21.897Z,100197.34
2019-02-09T23:58:50.678Z,100198.05
